Time;durP1;ratioP1;P1;durP2;ratioP2;P2;SDS_P1;SDS_P2;PMS_P1;PMS_P2;Temp;Humidity;BMP_temperature;BMP_pressure;BME280_temperature;BME280_humidity;BME280_pressure;Samples;Min_cycle;Max_cycle;Signal;HPM_P1;HPM_P2
2022/03/27 00:00:17;;;;;;;10.63;4.20;;;9.90;99.90;;;;;;5032563;28;20470;-58
2022/03/27 00:02:46;;;;;;;7.07;3.70;;;9.90;99.90;;;;;;5032146;28;20423;-56
2022/03/27 00:05:13;;;;;;;8.23;3.88;;;9.90;99.90;;;;;;5029956;28;20447;-57
2022/03/27 00:07:41;;;;;;;6.03;3.53;;;9.90;99.90;;;;;;5030921;28;20423;-56
2022/03/27 00:10:09;;;;;;;7.40;3.50;;;9.90;99.90;;;;;;5030341;28;20450;-56
2022/03/27 00:12:36;;;;;;;6.97;3.00;;;9.90;99.90;;;;;;5030293;28;20509;-59
2022/03/27 00:15:04;;;;;;;6.20;2.97;;;9.90;99.90;;;;;;5030819;28;20898;-58
2022/03/27 00:17:33;;;;;;;5.82;2.88;;;9.90;99.90;;;;;;5030207;28;20463;-57
2022/03/27 00:20:03;;;;;;;11.13;6.60;;;9.90;99.90;;;;;;5028817;28;20427;-59
2022/03/27 00:22:29;;;;;;;12.18;6.18;;;9.90;99.90;;;;;;5029979;28;20765;-57
2022/03/27 00:24:57;;;;;;;10.13;4.85;;;9.90;99.90;;;;;;5028454;28;20414;-53
2022/03/27 00:27:24;;;;;;;8.35;3.63;;;9.80;99.90;;;;;;5029502;28;20510;-58
2022/03/27 00:29:52;;;;;;;10.93;3.88;;;9.80;99.90;;;;;;5030159;28;20443;-57
2022/03/27 00:32:20;;;;;;;8.60;3.45;;;9.70;99.90;;;;;;5030570;28;20889;-56
2022/03/27 00:34:48;;;;;;;6.68;3.50;;;9.70;99.90;;;;;;5031539;28;20517;-58
2022/03/27 00:37:16;;;;;;;7.05;3.25;;;9.70;99.90;;;;;;5030865;28;20438;-58
2022/03/27 00:39:43;;;;;;;8.23;3.10;;;9.60;99.90;;;;;;5032250;28;20447;-57
2022/03/27 00:42:10;;;;;;;6.95;3.45;;;9.60;99.90;;;;;;5032877;28;20458;-54
2022/03/27 00:44:39;;;;;;;7.60;2.80;;;9.70;99.90;;;;;;5033932;28;20730;-58
2022/03/27 00:47:07;;;;;;;7.90;3.03;;;9.60;99.90;;;;;;5033252;28;20526;-60
2022/03/27 00:49:34;;;;;;;7.88;3.05;;;9.60;99.90;;;;;;5034682;28;20521;-58
2022/03/27 00:52:00;;;;;;;7.03;3.40;;;9.60;99.90;;;;;;5035745;28;20458;-58
2022/03/27 00:54:29;;;;;;;7.85;2.60;;;9.60;99.90;;;;;;5036916;28;20514;-58
2022/03/27 00:56:55;;;;;;;7.43;2.80;;;9.50;99.90;;;;;;5036329;28;20466;-56
2022/03/27 00:59:22;;;;;;;6.00;3.40;;;9.50;99.90;;;;;;5037437;28;20506;-58
2022/03/27 01:01:49;;;;;;;5.85;2.50;;;9.40;99.90;;;;;;5037037;28;20454;-56
2022/03/27 01:04:16;;;;;;;6.00;3.30;;;9.40;99.90;;;;;;5036960;28;20800;-58
2022/03/27 01:06:44;;;;;;;7.10;3.33;;;9.40;99.90;;;;;;5036371;28;20451;-58
2022/03/27 01:12:12;;;;;;;6.47;3.22;;;9.40;99.90;;;;;;5035045;28;20549;-58
2022/03/27 01:14:39;;;;;;;7.47;2.65;;;9.30;99.90;;;;;;5034363;28;20423;-57
2022/03/27 01:17:09;;;;;;;8.00;3.03;;;9.30;99.90;;;;;;5034278;28;20449;-57
2022/03/27 01:19:39;;;;;;;7.25;3.05;;;9.30;99.90;;;;;;5035420;28;20506;-57
2022/03/27 01:22:07;;;;;;;10.10;3.03;;;9.30;99.90;;;;;;5035517;28;20422;-56
2022/03/27 01:24:34;;;;;;;5.43;2.65;;;9.40;99.90;;;;;;5036608;28;20415;-56
2022/03/27 01:27:01;;;;;;;6.57;2.97;;;9.40;99.90;;;;;;5035405;28;20459;-57
2022/03/27 01:29:28;;;;;;;7.22;3.15;;;9.30;99.90;;;;;;5035278;28;20481;-58
2022/03/27 01:31:56;;;;;;;5.70;2.90;;;9.30;99.90;;;;;;5033992;28;20458;-57
2022/03/27 01:34:23;;;;;;;7.82;2.92;;;9.20;99.90;;;;;;5034916;28;20513;-56
2022/03/27 01:36:50;;;;;;;7.63;3.05;;;9.20;99.90;;;;;;5034283;28;20921;-57
2022/03/27 01:39:18;;;;;;;9.55;3.13;;;9.10;1.00;;;;;;5034319;28;20791;-53
2022/03/27 01:41:46;;;;;;;5.73;2.70;;;9.00;1.00;;;;;;5034943;28;20505;-58
2022/03/27 01:44:15;;;;;;;7.28;3.30;;;9.10;1.00;;;;;;5034448;28;20938;-55
2022/03/27 01:46:43;;;;;;;6.30;3.50;;;9.10;1.00;;;;;;5035094;28;20418;-56
2022/03/27 01:49:13;;;;;;;8.52;3.33;;;9.10;1.00;;;;;;5034185;28;20439;-56
2022/03/27 01:51:42;;;;;;;8.30;2.85;;;9.20;1.00;;;;;;5034840;28;20925;-57
2022/03/27 01:54:09;;;;;;;6.20;2.92;;;9.20;1.00;;;;;;5033801;28;20699;-57
2022/03/27 01:56:38;;;;;;;8.30;2.95;;;9.20;1.00;;;;;;5035109;28;20510;-57
2022/03/27 01:59:06;;;;;;;7.82;3.35;;;9.10;1.00;;;;;;5034675;28;20799;-57
2022/03/27 02:01:34;;;;;;;8.07;3.50;;;9.00;1.00;;;;;;5033036;28;20433;-58
2022/03/27 02:04:01;;;;;;;10.20;4.35;;;9.00;1.00;;;;;;5033797;28;20468;-57
2022/03/27 02:06:28;;;;;;;12.50;4.03;;;9.00;1.00;;;;;;5035471;28;20485;-57
2022/03/27 02:08:55;;;;;;;6.30;3.60;;;8.90;1.00;;;;;;5034698;28;20439;-52
2022/03/27 02:11:22;;;;;;;6.57;3.47;;;8.80;1.00;;;;;;5033113;28;20427;-57
2022/03/27 02:13:51;;;;;;;8.35;3.70;;;8.80;1.00;;;;;;5031113;28;20431;-57
2022/03/27 02:16:18;;;;;;;12.25;3.10;;;8.80;1.00;;;;;;5032842;28;20434;-58
2022/03/27 02:18:46;;;;;;;9.05;2.97;;;8.80;1.00;;;;;;5033063;28;20530;-57
2022/03/27 02:21:13;;;;;;;6.32;2.53;;;8.90;1.00;;;;;;5033162;28;20469;-56
2022/03/27 02:23:40;;;;;;;8.77;3.40;;;8.80;1.00;;;;;;5032966;28;20497;-57
2022/03/27 02:26:07;;;;;;;8.52;3.20;;;8.80;1.00;;;;;;5033972;28;20899;-57
2022/03/27 02:28:34;;;;;;;8.38;4.18;;;8.80;1.00;;;;;;5033060;28;20439;-57
2022/03/27 02:31:03;;;;;;;11.35;3.50;;;8.80;1.00;;;;;;5033227;28;20570;-54
2022/03/27 02:33:30;;;;;;;9.88;3.15;;;8.70;1.00;;;;;;5033665;28;20525;-56
2022/03/27 02:35:57;;;;;;;7.93;3.60;;;8.60;1.00;;;;;;5035649;28;20450;-56
2022/03/27 02:38:25;;;;;;;8.60;3.20;;;8.80;1.00;;;;;;5035130;28;20478;-57
2022/03/27 02:40:52;;;;;;;6.43;2.60;;;8.70;1.00;;;;;;5035184;28;20506;-57
2022/03/27 02:43:19;;;;;;;7.68;3.03;;;8.70;1.00;;;;;;5033269;28;20813;-57
2022/03/27 02:45:47;;;;;;;8.50;3.00;;;8.70;1.00;;;;;;5034854;28;20795;-57
2022/03/27 02:48:16;;;;;;;6.90;3.80;;;8.60;1.00;;;;;;5034524;28;20430;-55
2022/03/27 02:50:43;;;;;;;6.95;2.50;;;8.60;1.00;;;;;;5035267;28;20454;-56
2022/03/27 02:53:11;;;;;;;7.43;3.10;;;8.50;1.00;;;;;;5034328;28;20443;-56
2022/03/27 02:55:38;;;;;;;7.47;2.63;;;8.50;1.00;;;;;;5034125;28;20427;-56
2022/03/27 02:58:05;;;;;;;7.43;3.42;;;8.50;1.00;;;;;;5035015;28;20434;-54
2022/03/27 03:00:32;;;;;;;7.68;3.45;;;8.50;1.00;;;;;;5034868;28;20799;-56
2022/03/27 03:02:59;;;;;;;5.80;2.90;;;8.40;1.00;;;;;;5034930;28;20469;-57
2022/03/27 03:05:28;;;;;;;7.00;3.13;;;8.40;1.00;;;;;;5034223;28;20430;-57
2022/03/27 03:07:56;;;;;;;10.38;4.30;;;8.40;1.00;;;;;;5034240;28;20470;-57
2022/03/27 03:10:23;;;;;;;10.00;4.28;;;8.40;1.00;;;;;;5033973;28;20611;-57
2022/03/27 03:12:50;;;;;;;5.80;2.58;;;8.40;1.00;;;;;;5034543;28;20423;-57
2022/03/27 03:15:17;;;;;;;8.18;3.35;;;8.30;1.00;;;;;;5032874;28;20525;-57
2022/03/27 03:17:44;;;;;;;6.25;3.00;;;8.30;1.00;;;;;;5034623;28;20937;-57
2022/03/27 03:20:12;;;;;;;7.75;3.47;;;8.40;1.00;;;;;;5035004;28;20470;-53
2022/03/27 03:22:41;;;;;;;7.82;3.47;;;8.40;1.00;;;;;;5034331;28;20493;-56
2022/03/27 03:25:09;;;;;;;7.05;2.92;;;8.30;1.00;;;;;;5034986;28;20819;-53
2022/03/27 03:27:37;;;;;;;8.13;2.90;;;8.40;1.00;;;;;;5034296;28;20431;-56
2022/03/27 03:30:06;;;;;;;8.45;2.80;;;8.40;1.00;;;;;;5034414;28;20871;-56
2022/03/27 03:32:34;;;;;;;7.80;2.80;;;8.40;1.00;;;;;;5033137;28;20463;-55
2022/03/27 03:35:01;;;;;;;8.70;3.83;;;8.30;1.00;;;;;;5034792;28;20793;-56
2022/03/27 03:37:28;;;;;;;8.95;3.45;;;8.20;1.00;;;;;;5033848;28;20488;-56
2022/03/27 03:39:56;;;;;;;7.13;3.55;;;8.10;1.00;;;;;;5034766;28;20510;-57
2022/03/27 03:42:23;;;;;;;7.43;3.58;;;8.20;1.00;;;;;;5033718;28;20470;-57
2022/03/27 03:44:50;;;;;;;5.90;2.65;;;8.10;1.00;;;;;;5034891;28;20438;-51
2022/03/27 03:47:17;;;;;;;8.40;3.38;;;8.10;1.00;;;;;;5034013;28;20454;-57
2022/03/27 03:49:44;;;;;;;7.35;2.95;;;8.10;1.00;;;;;;5033866;28;20526;-57
2022/03/27 03:52:11;;;;;;;6.50;3.53;;;8.10;1.00;;;;;;5033514;28;20530;-53
2022/03/27 03:54:38;;;;;;;8.00;4.20;;;8.10;1.00;;;;;;5034069;28;20450;-57
2022/03/27 03:57:07;;;;;;;7.20;3.25;;;8.10;1.00;;;;;;5033244;28;20609;-56
2022/03/27 03:59:36;;;;;;;8.38;2.97;;;8.10;1.00;;;;;;5034295;28;20419;-55
2022/03/27 04:02:05;;;;;;;9.60;4.60;;;8.10;1.00;;;;;;5033572;28;20435;-56
2022/03/27 04:04:34;;;;;;;6.38;3.60;;;8.10;1.00;;;;;;5034466;28;20422;-56
2022/03/27 04:07:01;;;;;;;6.47;3.30;;;8.10;1.00;;;;;;5033769;28;20435;-56
2022/03/27 04:09:29;;;;;;;6.80;3.40;;;8.10;1.00;;;;;;5034551;28;20526;-54
2022/03/27 04:11:56;;;;;;;7.50;3.63;;;8.10;1.00;;;;;;5033379;28;20529;-57
2022/03/27 04:14:24;;;;;;;7.00;3.80;;;8.10;1.00;;;;;;5033331;28;20572;-56
2022/03/27 04:16:51;;;;;;;7.07;3.38;;;8.10;1.00;;;;;;5032897;28;20466;-53
2022/03/27 04:19:18;;;;;;;10.50;3.20;;;8.10;1.00;;;;;;5033692;28;20905;-57
2022/03/27 04:21:45;;;;;;;6.60;3.80;;;8.10;1.00;;;;;;5032317;28;20458;-58
2022/03/27 04:24:12;;;;;;;10.50;4.00;;;8.10;1.00;;;;;;5033522;28;20517;-56
2022/03/27 04:26:40;;;;;;;10.82;4.00;;;8.00;1.00;;;;;;5035207;28;20753;-57
2022/03/27 04:29:08;;;;;;;7.68;3.40;;;8.00;1.00;;;;;;5036812;28;20435;-56
2022/03/27 04:31:36;;;;;;;7.15;3.00;;;7.90;1.00;;;;;;5036345;28;20427;-55
2022/03/27 04:34:03;;;;;;;8.55;3.42;;;7.90;1.00;;;;;;5036667;28;20455;-58
2022/03/27 04:36:30;;;;;;;6.72;3.10;;;7.80;1.00;;;;;;5036623;28;20533;-57
2022/03/27 04:38:57;;;;;;;11.45;4.13;;;7.90;1.00;;;;;;5037554;28;20835;-58
2022/03/27 04:41:24;;;;;;;9.07;5.00;;;7.80;1.00;;;;;;5036128;28;20426;-57
2022/03/27 04:43:51;;;;;;;7.32;4.00;;;7.70;1.00;;;;;;5037920;28;20496;-56
2022/03/27 04:46:18;;;;;;;10.05;4.25;;;7.70;1.00;;;;;;5038021;28;20435;-57
2022/03/27 04:48:46;;;;;;;7.28;3.28;;;7.70;1.00;;;;;;5036714;28;20466;-57
2022/03/27 04:51:14;;;;;;;7.70;3.05;;;7.60;1.00;;;;;;5037257;28;20441;-56
2022/03/27 04:53:41;;;;;;;6.65;2.95;;;7.70;1.00;;;;;;5036339;28;20462;-55
2022/03/27 04:56:08;;;;;;;9.23;3.70;;;7.70;1.00;;;;;;5037475;28;20459;-56
2022/03/27 04:58:35;;;;;;;7.63;3.20;;;7.80;1.00;;;;;;5034700;28;20797;-56
2022/03/27 05:01:03;;;;;;;8.97;3.07;;;7.80;1.00;;;;;;5036517;28;20853;-55
2022/03/27 05:03:30;;;;;;;9.95;4.78;;;7.80;1.00;;;;;;5036310;28;20481;-57
2022/03/27 05:05:59;;;;;;;7.65;3.25;;;7.80;1.00;;;;;;5037262;28;20464;-56
2022/03/27 05:08:26;;;;;;;8.05;4.15;;;7.70;1.00;;;;;;5035559;28;20521;-55
2022/03/27 05:10:53;;;;;;;8.15;4.00;;;7.60;1.00;;;;;;5036878;28;20530;-55
2022/03/27 05:13:20;;;;;;;8.73;3.60;;;7.50;1.00;;;;;;5036312;28;20444;-57
2022/03/27 05:15:48;;;;;;;8.53;3.40;;;7.50;1.00;;;;;;5036917;28;20780;-52
2022/03/27 05:18:15;;;;;;;9.85;3.50;;;7.50;1.00;;;;;;5035755;28;20869;-56
2022/03/27 05:20:43;;;;;;;9.60;3.20;;;7.40;1.00;;;;;;5037155;28;20509;-54
2022/03/27 05:23:11;;;;;;;8.88;3.30;;;7.40;1.00;;;;;;5036162;28;20806;-54
2022/03/27 05:25:42;;;;;;;8.47;3.50;;;7.40;1.00;;;;;;5036512;28;20510;-56
2022/03/27 05:28:10;;;;;;;7.68;4.13;;;7.30;1.00;;;;;;5035946;28;20423;-57
2022/03/27 05:30:37;;;;;;;8.18;3.67;;;7.30;1.00;;;;;;5035930;28;20551;-55
2022/03/27 05:33:04;;;;;;;7.85;3.78;;;7.30;1.00;;;;;;5035259;28;20512;-57
2022/03/27 05:35:32;;;;;;;8.55;3.88;;;7.30;1.00;;;;;;5035787;28;20479;-55
2022/03/27 05:37:59;;;;;;;8.10;3.63;;;7.30;1.00;;;;;;5035435;28;20684;-57
2022/03/27 05:40:29;;;;;;;8.80;3.83;;;7.30;1.00;;;;;;5036345;28;20423;-56
2022/03/27 05:42:56;;;;;;;8.50;4.00;;;7.30;1.00;;;;;;5035425;28;20419;-54
2022/03/27 05:45:25;;;;;;;7.20;3.45;;;7.30;1.00;;;;;;5036672;28;20502;-55
2022/03/27 05:47:53;;;;;;;7.78;3.60;;;7.40;1.00;;;;;;5036479;28;20427;-54
2022/03/27 05:50:22;;;;;;;8.50;3.90;;;7.60;1.00;;;;;;5036215;28;20462;-56
2022/03/27 05:52:49;;;;;;;6.40;3.17;;;7.60;1.00;;;;;;5035791;28;20430;-55
2022/03/27 05:55:16;;;;;;;5.07;3.28;;;7.50;1.00;;;;;;5035162;28;20933;-55
2022/03/27 05:57:44;;;;;;;10.18;3.40;;;7.40;1.00;;;;;;5036211;28;20429;-54
2022/03/27 06:00:13;;;;;;;7.22;3.60;;;7.30;1.00;;;;;;5036040;28;20462;-52
2022/03/27 06:02:40;;;;;;;5.72;3.30;;;7.30;1.00;;;;;;5036589;28;20423;-53
2022/03/27 06:05:08;;;;;;;10.85;3.78;;;7.40;1.00;;;;;;5035564;28;20517;-56
2022/03/27 06:07:43;;;;;;;8.77;3.65;;;7.40;1.00;;;;;;5036521;28;20466;-57
2022/03/27 06:10:11;;;;;;;8.70;4.15;;;7.50;1.00;;;;;;5034842;28;20445;-52
2022/03/27 06:12:39;;;;;;;5.93;3.58;;;7.60;1.00;;;;;;5034710;28;20475;-52
2022/03/27 06:15:08;;;;;;;6.80;4.00;;;7.70;1.00;;;;;;5033962;28;20434;-53
2022/03/27 06:17:43;;;;;;;9.70;4.55;;;7.80;1.00;;;;;;5034691;28;20423;-53
2022/03/27 06:20:12;;;;;;;9.60;4.03;;;7.80;1.00;;;;;;5033740;28;20423;-56
2022/03/27 06:22:40;;;;;;;7.78;3.80;;;7.80;1.00;;;;;;5034305;28;20426;-54
2022/03/27 06:25:08;;;;;;;7.07;4.28;;;7.80;1.00;;;;;;5032705;28;20747;-54
2022/03/27 06:27:35;;;;;;;6.90;4.15;;;7.70;1.00;;;;;;5034695;28;20439;-57
2022/03/27 06:30:02;;;;;;;10.10;5.37;;;7.70;1.00;;;;;;5033693;28;20723;-57
2022/03/27 06:32:31;;;;;;;9.18;4.47;;;7.80;1.00;;;;;;5035014;28;20430;-53
2022/03/27 06:34:58;;;;;;;10.63;4.60;;;7.80;1.00;;;;;;5034025;28;20925;-57
2022/03/27 06:37:26;;;;;;;7.38;3.97;;;7.80;1.00;;;;;;5035742;28;20477;-54
2022/03/27 06:39:55;;;;;;;7.03;3.97;;;7.80;1.00;;;;;;5033347;28;20437;-56
2022/03/27 06:42:22;;;;;;;8.85;4.30;;;7.90;1.00;;;;;;5032724;28;20427;-53
2022/03/27 06:44:50;;;;;;;7.20;4.00;;;8.00;1.00;;;;;;5033780;28;20613;-56
2022/03/27 06:47:17;;;;;;;8.32;4.38;;;8.10;1.00;;;;;;5034683;28;20429;-57
2022/03/27 06:49:45;;;;;;;9.30;3.50;;;8.10;1.00;;;;;;5033962;28;20529;-56
2022/03/27 06:52:12;;;;;;;9.43;5.10;;;8.20;1.00;;;;;;5035261;28;20462;-57
2022/03/27 06:54:39;;;;;;;12.43;5.70;;;8.30;1.00;;;;;;5034028;28;20517;-56
2022/03/27 06:57:06;;;;;;;8.23;4.20;;;8.40;1.00;;;;;;5034310;28;20519;-55
2022/03/27 07:03:01;;;;;;;9.55;4.97;;;8.40;1.00;;;;;;5032204;28;20474;-57
2022/03/27 07:05:09;;;;;;;9.65;4.28;;;8.60;1.00;;;;;;5033229;28;20461;-55
2022/03/27 07:07:36;;;;;;;7.80;4.22;;;8.60;1.00;;;;;;5034546;28;20476;-56
2022/03/27 07:10:04;;;;;;;13.10;4.93;;;8.60;1.00;;;;;;5033253;28;20440;-54
2022/03/27 07:12:31;;;;;;;7.80;3.53;;;8.80;1.00;;;;;;5034574;28;20814;-57
2022/03/27 07:14:58;;;;;;;9.82;4.30;;;8.90;1.00;;;;;;5034021;28;20807;-58
2022/03/27 07:17:25;;;;;;;9.40;5.00;;;9.00;1.00;;;;;;5032084;28;20518;-54
2022/03/27 07:19:53;;;;;;;8.18;4.20;;;9.10;1.00;;;;;;5033367;28;20434;-57
2022/03/27 07:22:21;;;;;;;10.30;4.35;;;9.20;1.00;;;;;;5034890;28;20755;-55
2022/03/27 07:24:48;;;;;;;10.00;5.05;;;9.40;1.00;;;;;;5034419;28;20521;-58
2022/03/27 07:27:16;;;;;;;10.48;5.97;;;9.50;1.00;;;;;;5034823;28;21018;-53
2022/03/27 07:29:43;;;;;;;13.63;5.07;;;9.60;1.00;;;;;;5034482;28;20433;-57
2022/03/27 07:32:11;;;;;;;9.45;4.45;;;9.60;1.00;;;;;;5034805;28;20775;-54
2022/03/27 07:34:38;;;;;;;9.30;4.68;;;9.60;1.00;;;;;;5033806;28;20441;-57
2022/03/27 07:37:05;;;;;;;9.65;4.80;;;9.60;1.00;;;;;;5034151;28;20427;-57
2022/03/27 07:39:33;;;;;;;9.52;4.90;;;9.60;1.00;;;;;;5033518;28;20533;-56
2022/03/27 07:42:00;;;;;;;8.75;4.47;;;9.60;1.00;;;;;;5034281;28;20456;-55
2022/03/27 07:44:27;;;;;;;8.43;4.63;;;9.70;1.00;;;;;;5032230;28;20484;-57
2022/03/27 07:46:58;;;;;;;11.23;5.32;;;10.00;1.00;;;;;;5031790;28;20798;-55
2022/03/27 07:49:26;;;;;;;8.48;5.00;;;10.20;1.00;;;;;;5031385;28;20597;-55
2022/03/27 07:51:53;;;;;;;11.65;6.00;;;10.30;1.00;;;;;;5031788;28;20510;-56
2022/03/27 07:54:20;;;;;;;10.70;5.93;;;10.50;1.00;;;;;;5031601;28;20856;-55
2022/03/27 07:56:48;;;;;;;12.23;7.30;;;10.60;1.00;;;;;;5030912;28;20423;-57
2022/03/27 07:59:15;;;;;;;11.88;6.43;;;10.60;1.00;;;;;;5031526;28;20665;-57
2022/03/27 08:01:42;;;;;;;9.27;6.32;;;10.70;1.00;;;;;;5036137;28;20513;-57
2022/03/27 08:04:09;;;;;;;10.27;6.43;;;10.70;1.00;;;;;;5035829;28;20517;-57
2022/03/27 08:06:36;;;;;;;14.07;7.57;;;10.80;1.00;;;;;;5036496;28;20419;-57
2022/03/27 08:09:05;;;;;;;10.52;6.45;;;10.80;1.00;;;;;;5035100;28;20445;-57
2022/03/27 08:11:32;;;;;;;12.00;6.63;;;10.80;1.00;;;;;;5033285;28;20522;-58
2022/03/27 08:14:00;;;;;;;10.60;5.88;;;10.80;1.00;;;;;;5034853;28;20867;-56
2022/03/27 08:16:27;;;;;;;6.40;4.23;;;10.70;1.00;;;;;;5032646;28;20423;-54
2022/03/27 08:18:54;;;;;;;9.63;5.13;;;10.80;1.00;;;;;;5035404;28;20508;-53
2022/03/27 08:21:21;;;;;;;13.07;6.82;;;10.90;1.00;;;;;;5035186;28;20847;-55
2022/03/27 08:23:48;;;;;;;9.98;5.65;;;11.00;1.00;;;;;;5036772;28;20431;-55
2022/03/27 08:29:02;;;;;;;13.10;5.67;;;11.30;1.00;;;;;;5035013;28;20847;-57
2022/03/27 08:31:30;;;;;;;7.80;5.30;;;11.30;1.00;;;;;;5034220;28;20446;-59
2022/03/27 08:33:57;;;;;;;9.80;4.07;;;11.40;1.00;;;;;;5033843;28;20434;-56
2022/03/27 08:36:28;;;;;;;7.53;4.70;;;11.50;1.00;;;;;;5034285;28;20437;-56
2022/03/27 08:38:55;;;;;;;10.60;5.45;;;11.70;1.00;;;;;;5033238;28;20452;-55
2022/03/27 08:41:22;;;;;;;7.18;4.22;;;11.70;1.00;;;;;;5032362;28;20821;-54
2022/03/27 08:43:58;;;;;;;8.23;4.32;;;11.70;1.00;;;;;;5034649;28;20418;-56
2022/03/27 08:46:27;;;;;;;8.50;4.88;;;11.80;1.00;;;;;;5035021;28;20430;-57
2022/03/27 08:48:54;;;;;;;8.95;5.65;;;11.90;1.00;;;;;;5034203;28;20477;-56
2022/03/27 08:51:30;;;;;;;9.45;5.15;;;11.90;1.00;;;;;;5033235;28;20449;-57
2022/03/27 08:54:02;;;;;;;11.05;4.55;;;12.10;1.00;;;;;;5032139;28;20454;-56
2022/03/27 08:56:31;;;;;;;6.80;5.33;;;12.10;1.00;;;;;;5035702;28;20530;-56
2022/03/27 08:59:02;;;;;;;7.03;5.40;;;12.20;1.00;;;;;;5033359;28;21062;-54
2022/03/27 09:01:31;;;;;;;8.55;4.20;;;12.40;1.00;;;;;;5032076;28;21824;-55
2022/03/27 09:03:58;;;;;;;6.25;4.25;;;12.50;1.00;;;;;;5031675;28;20453;-56
2022/03/27 09:06:25;;;;;;;7.95;4.60;;;12.80;1.00;;;;;;5032393;28;20434;-56
2022/03/27 09:08:53;;;;;;;9.68;4.70;;;13.00;1.00;;;;;;5034838;28;20516;-56
2022/03/27 09:11:22;;;;;;;7.30;4.10;;;13.00;1.00;;;;;;5032789;28;20439;-56
2022/03/27 09:13:52;;;;;;;7.30;4.20;;;13.10;1.00;;;;;;5032867;28;20426;-56
2022/03/27 09:16:20;;;;;;;8.18;4.63;;;13.30;1.00;;;;;;5031863;28;20434;-56
2022/03/27 09:18:52;;;;;;;8.90;4.90;;;13.40;1.00;;;;;;5032545;28;20429;-57
2022/03/27 09:21:20;;;;;;;6.53;3.97;;;13.60;1.00;;;;;;5031822;28;21063;-56
2022/03/27 09:23:53;;;;;;;8.45;4.90;;;13.70;1.00;;;;;;5034412;28;20510;-57
2022/03/27 09:26:20;;;;;;;7.60;3.90;;;13.70;1.00;;;;;;5034545;28;20525;-58
2022/03/27 09:28:49;;;;;;;6.25;3.40;;;14.00;1.00;;;;;;5035007;28;20480;-56
2022/03/27 09:31:25;;;;;;;10.32;4.38;;;14.10;1.00;;;;;;5032198;28;20521;-57
2022/03/27 09:33:55;;;;;;;9.05;4.63;;;14.10;1.00;;;;;;5033341;28;20484;-57
2022/03/27 09:36:25;;;;;;;5.90;3.28;;;14.10;1.00;;;;;;5031417;28;20614;-57
2022/03/27 09:39:05;;;;;;;8.20;4.72;;;14.20;1.00;;;;;;5033239;28;20426;-57
2022/03/27 09:41:38;;;;;;;7.07;4.57;;;14.20;1.00;;;;;;5032035;28;20467;-57
2022/03/27 09:44:08;;;;;;;8.32;4.22;;;14.10;1.00;;;;;;5029115;28;20431;-57
2022/03/27 09:46:53;;;;;;;8.68;4.20;;;14.00;1.00;;;;;;5029365;28;21003;-58
2022/03/27 09:49:25;;;;;;;6.90;3.70;;;14.20;1.00;;;;;;5023742;28;20517;-57
2022/03/27 09:51:57;;;;;;;6.45;3.67;;;14.40;1.00;;;;;;5028926;28;20435;-58
2022/03/27 09:54:25;;;;;;;6.10;3.10;;;14.70;1.00;;;;;;5030188;28;20419;-56
2022/03/27 09:56:52;;;;;;;7.60;4.07;;;14.80;1.00;;;;;;5030673;28;20534;-57
2022/03/27 09:59:27;;;;;;;6.43;4.05;;;15.00;1.00;;;;;;5030411;28;20469;-56
2022/03/27 10:01:54;;;;;;;8.03;4.33;;;15.00;1.00;;;;;;5032313;28;20624;-57
2022/03/27 10:04:22;;;;;;;6.30;3.60;;;15.10;1.00;;;;;;5032768;28;20519;-57
2022/03/27 10:06:49;;;;;;;6.07;3.40;;;15.30;1.00;;;;;;5031022;28;20423;-58
2022/03/27 10:09:16;;;;;;;7.15;3.55;;;15.60;1.00;;;;;;5035656;28;20432;-58
2022/03/27 10:11:44;;;;;;;7.85;4.25;;;15.90;1.00;;;;;;5030127;28;20937;-57
2022/03/27 10:14:11;;;;;;;7.38;4.30;;;16.10;1.00;;;;;;5029764;28;20427;-58
2022/03/27 10:16:46;;;;;;;7.43;4.00;;;16.40;1.00;;;;;;5028792;28;20430;-58
2022/03/27 10:19:21;;;;;;;5.60;3.70;;;16.50;1.00;;;;;;5031984;28;20444;-58
2022/03/27 10:21:52;;;;;;;7.50;4.03;;;16.80;1.00;;;;;;5031326;28;20497;-58
2022/03/27 10:24:21;;;;;;;7.47;4.35;;;17.20;1.00;;;;;;5031547;28;20897;-58
2022/03/27 10:26:49;;;;;;;5.97;3.27;;;17.40;1.00;;;;;;5029691;28;20530;-59
2022/03/27 10:29:16;;;;;;;6.82;3.50;;;17.40;1.00;;;;;;5029709;28;20882;-58
2022/03/27 10:31:43;;;;;;;6.60;3.88;;;17.70;1.00;;;;;;5030383;28;20951;-58
2022/03/27 10:34:13;;;;;;;6.85;3.20;;;18.00;1.00;;;;;;5031480;28;20423;-58
2022/03/27 10:36:52;;;;;;;7.65;3.33;;;18.40;1.00;;;;;;5030405;28;20738;-58
2022/03/27 10:39:25;;;;;;;8.93;4.30;;;18.40;1.00;;;;;;5031473;28;20430;-58
2022/03/27 10:42:02;;;;;;;6.32;3.45;;;18.40;1.00;;;;;;5031729;28;20718;-58
2022/03/27 10:44:37;;;;;;;7.53;3.17;;;18.60;1.00;;;;;;5031246;28;20434;-59
2022/03/27 10:47:17;;;;;;;7.10;2.97;;;18.50;1.00;;;;;;5017057;28;20437;-59
2022/03/27 10:50:23;;;;;;;6.50;2.63;;;18.30;1.00;;;;;;5029937;28;20510;-59
2022/03/27 10:53:13;;;;;;;8.45;4.20;;;18.60;1.00;;;;;;5016208;28;20435;-59
2022/03/27 10:55:43;;;;;;;6.80;3.53;;;18.90;1.00;;;;;;5030222;28;20495;-59
2022/03/27 10:58:34;;;;;;;8.10;4.15;;;19.20;1.00;;;;;;5029044;28;20430;-59
2022/03/27 11:01:03;;;;;;;6.32;3.38;;;18.90;1.00;;;;;;5015379;28;20437;-59
2022/03/27 11:04:07;;;;;;;7.20;3.75;;;19.20;1.00;;;;;;5028612;28;20435;-59
2022/03/27 11:06:35;;;;;;;7.05;3.47;;;19.40;1.00;;;;;;4966962;28;20464;-59
2022/03/27 11:09:06;;;;;;;9.02;3.90;;;19.50;1.00;;;;;;5020458;28;21716;-59
2022/03/27 11:11:56;;;;;;;6.95;3.60;;;19.60;1.00;;;;;;5030070;28;20854;-59
2022/03/27 11:14:46;;;;;;;8.15;3.90;;;20.00;1.00;;;;;;5031595;28;20506;-59
2022/03/27 11:17:15;;;;;;;6.63;4.22;;;19.90;99.90;;;;;;5028886;28;20500;-58
2022/03/27 11:19:46;;;;;;;7.60;4.88;;;19.70;99.90;;;;;;5028749;28;20531;-58
2022/03/27 11:22:42;;;;;;;5.88;4.07;;;19.40;99.90;;;;;;5028405;28;20473;-59
2022/03/27 11:25:27;;;;;;;8.45;4.25;;;19.60;99.90;;;;;;5017087;28;20411;-59
2022/03/27 11:27:55;;;;;;;6.82;4.20;;;20.00;99.90;;;;;;5027319;28;20488;-59
2022/03/27 11:30:22;;;;;;;5.10;3.57;;;20.10;99.90;;;;;;5027817;28;20430;-58
2022/03/27 11:33:18;;;;;;;7.13;3.63;;;20.40;99.90;;;;;;5029554;28;20438;-58
2022/03/27 11:36:23;;;;;;;6.30;3.47;;;20.30;99.90;;;;;;5028657;28;20658;-59
2022/03/27 11:39:02;;;;;;;6.80;3.60;;;20.50;99.90;;;;;;5015562;28;20526;-59
2022/03/27 11:41:32;;;;;;;7.78;5.00;;;20.40;99.90;;;;;;5029311;28;20418;-59
2022/03/27 11:44:24;;;;;;;5.03;2.85;;;20.60;99.90;;;;;;5028945;28;20415;-59
2022/03/27 11:46:52;;;;;;;6.82;3.10;;;20.60;99.90;;;;;;5023386;28;20738;-58
2022/03/27 11:49:22;;;;;;;8.18;3.47;;;20.80;99.90;;;;;;5028559;28;20427;-59
2022/03/27 11:52:03;;;;;;;6.88;3.25;;;21.00;99.90;;;;;;5028012;28;20756;-59
2022/03/27 11:54:30;;;;;;;10.07;6.32;;;21.20;99.90;;;;;;5028671;28;20731;-59
2022/03/27 11:56:59;;;;;;;5.25;2.45;;;21.20;99.90;;;;;;5027337;28;20433;-59
2022/03/27 11:59:27;;;;;;;4.85;2.58;;;21.30;99.90;;;;;;5030164;28;20518;-58
2022/03/27 12:01:56;;;;;;;6.75;2.55;;;21.50;99.90;;;;;;5027264;28;20840;-59
2022/03/27 12:04:25;;;;;;;5.45;2.45;;;21.50;99.90;;;;;;5030631;28;20429;-59
2022/03/27 12:06:56;;;;;;;6.40;3.60;;;21.30;99.90;;;;;;5030349;28;20846;-59
2022/03/27 12:09:25;;;;;;;6.65;2.20;;;21.10;99.90;;;;;;5031345;28;20902;-59
2022/03/27 12:12:05;;;;;;;4.45;2.45;;;20.80;99.90;;;;;;5028859;28;20439;-59
2022/03/27 12:14:32;;;;;;;6.22;2.33;;;20.60;99.90;;;;;;5028865;28;20752;-59
2022/03/27 12:16:59;;;;;;;4.60;2.50;;;21.10;99.90;;;;;;5031860;28;20533;-59
2022/03/27 12:19:27;;;;;;;4.78;2.13;;;21.40;99.90;;;;;;5031786;28;20426;-59
2022/03/27 12:21:54;;;;;;;5.70;3.00;;;21.20;99.90;;;;;;5030410;28;20423;-59
2022/03/27 12:24:21;;;;;;;4.07;2.10;;;20.90;99.90;;;;;;5029283;28;20744;-59
2022/03/27 12:29:43;;;;;;;5.20;2.35;;;21.50;99.90;;;;;;5031331;28;20500;-59
2022/03/27 12:32:12;;;;;;;4.50;2.03;;;21.50;99.90;;;;;;5030833;28;20525;-59
2022/03/27 12:34:43;;;;;;;4.80;2.25;;;21.70;99.90;;;;;;5028645;28;20751;-59
2022/03/27 12:37:14;;;;;;;3.17;2.00;;;21.60;99.90;;;;;;5028526;28;20435;-60
2022/03/27 12:39:58;;;;;;;4.45;1.80;;;21.80;99.90;;;;;;5030629;28;20458;-62
2022/03/27 12:42:35;;;;;;;4.87;1.97;;;21.90;99.90;;;;;;5028621;28;20439;-61
2022/03/27 12:45:05;;;;;;;5.60;2.73;;;22.00;99.90;;;;;;5023548;28;20431;-61
2022/03/27 12:47:33;;;;;;;4.60;2.00;;;22.20;99.90;;;;;;5033597;28;20445;-61
2022/03/27 12:50:01;;;;;;;5.53;1.90;;;21.80;99.90;;;;;;5035479;28;20468;-61
2022/03/27 12:52:29;;;;;;;5.07;2.00;;;21.50;99.90;;;;;;5034168;28;20739;-61
2022/03/27 12:54:57;;;;;;;3.58;1.90;;;21.80;99.90;;;;;;5035696;28;20419;-61
2022/03/27 12:57:25;;;;;;;3.10;1.88;;;22.00;99.90;;;;;;5034091;28;20530;-60
2022/03/27 12:59:52;;;;;;;8.05;3.08;;;22.10;99.90;;;;;;5034351;28;20431;-62
2022/03/27 13:02:27;;;;;;;5.30;2.30;;;22.10;99.90;;;;;;5033390;28;20537;-62
2022/03/27 13:05:00;;;;;;;3.75;1.92;;;22.10;99.90;;;;;;5034052;28;20809;-61
2022/03/27 13:07:52;;;;;;;4.17;1.70;;;22.30;99.90;;;;;;5034086;28;20862;-61
2022/03/27 13:10:20;;;;;;;4.43;1.98;;;22.30;99.90;;;;;;5034794;28;20866;-61
2022/03/27 13:12:47;;;;;;;3.17;1.57;;;22.20;99.90;;;;;;5032827;28;20921;-61
2022/03/27 13:15:14;;;;;;;4.57;1.50;;;22.00;99.90;;;;;;5035012;28;20470;-61
2022/03/27 13:17:41;;;;;;;3.65;1.45;;;22.10;99.90;;;;;;5033713;28;20533;-62
2022/03/27 13:20:09;;;;;;;3.00;1.20;;;22.30;99.90;;;;;;5034217;28;20427;-61